Weather Outlook- 1st August 2020 (6pm)

Humid conditions and localised activity should persist into tomorrow as a south easterly light wind regime continues. Although fair conditions are anticipated early Sunday, a northward migration of the ITCZ coupled with interaction from a tropical wave could generate occasionally cloudy skies and trigger a few scattered showers over the Grenadines during mid afternoon. These conditions could extend to the mainland by nightfall into Monday with a low chance of isolated thunderstorms.

Gentle to moderate(15km/h – 25km/h) east south easterly(ESE) trades would move across the islands during the weekend becoming easterly(E) from Tuesday. Sea conditions are forecast to be moderate (1.5m-2.0m) during the next 72 hours period.  

In addition, only slight haze intrusion is forecast during the next three days.

Aviation WX

[Source: ADDS]
METAR
TVSA 101400Z 05012KT 010V090 9999 -SHRA BKN012 SCT028 27/25 Q1014 NOSIG =
TVSA 101100Z 1012/1112 06010KT 9999 SCT018 SCT036 PROB40 TEMPO 1012/1018 SHRA BKN014 BKN032
TAF
TVSA 101100Z 1012/1112 06010KT 9999 SCT018 SCT036 PROB40 TEMPO 1012/1018 SHRA BKN014 BKN032 =
SR / SS: 09:51 / 22:28 UTC (Sunrise Sunset 2020-08-10)